createdAt,value
2023-05-01T00:01:27.129Z,7.91
2023-05-01T00:03:53.950Z,8.01
2023-05-01T00:06:20.895Z,8.13
2023-05-01T00:08:47.568Z,7.92
2023-05-01T00:11:15.637Z,7.78
2023-05-01T00:13:42.441Z,7.85
2023-05-01T00:16:09.264Z,7.75
2023-05-01T00:18:36.020Z,7.77
2023-05-01T00:21:02.801Z,7.71
2023-05-01T00:23:29.489Z,7.77
2023-05-01T00:25:56.174Z,7.63
2023-05-01T00:28:24.327Z,7.82
2023-05-01T00:30:51.004Z,7.92
2023-05-01T00:33:17.692Z,7.82
2023-05-01T00:35:44.547Z,7.85
2023-05-01T00:38:11.222Z,7.99
2023-05-01T00:40:42.247Z,8.15
2023-05-01T00:43:09.040Z,8.06
2023-05-01T00:45:37.178Z,8.28
2023-05-01T00:48:04.187Z,8.40
2023-05-01T00:50:30.932Z,8.63
2023-05-01T00:52:57.632Z,8.82
2023-05-01T00:55:24.336Z,8.77
2023-05-01T00:57:51.058Z,8.91
2023-05-01T01:00:17.875Z,8.95
2023-05-01T01:02:46.257Z,9.11
2023-05-01T01:05:13.047Z,9.21
2023-05-01T01:07:42.025Z,9.09
2023-05-01T01:10:13.914Z,9.15
2023-05-01T01:12:46.299Z,9.23
2023-05-01T01:15:15.695Z,9.19
2023-05-01T01:17:44.674Z,9.29
2023-05-01T01:20:26.893Z,9.44
2023-05-01T01:22:56.779Z,9.39
2023-05-01T01:25:53.641Z,9.47
2023-05-01T01:29:01.458Z,9.57
2023-05-01T01:31:32.740Z,9.47
2023-05-01T01:34:02.065Z,9.46
2023-05-01T01:36:56.365Z,9.56
2023-05-01T01:39:27.471Z,9.44
2023-05-01T01:41:54.173Z,9.43
2023-05-01T01:44:24.600Z,9.42
2023-05-01T01:46:51.484Z,9.29
2023-05-01T01:49:21.041Z,9.23
2023-05-01T01:51:47.879Z,9.02
2023-05-01T01:54:15.398Z,8.95
2023-05-01T01:56:42.111Z,8.87
2023-05-01T01:59:08.813Z,8.75
2023-05-01T02:01:35.566Z,8.61
2023-05-01T02:04:02.414Z,8.53
2023-05-01T02:06:30.666Z,8.54
2023-05-01T02:08:57.411Z,8.56
2023-05-01T02:11:24.106Z,8.50
2023-05-01T02:13:50.862Z,8.49
2023-05-01T02:16:17.612Z,8.49
2023-05-01T02:18:44.342Z,8.44
2023-05-01T02:21:11.693Z,8.47
2023-05-01T02:23:39.845Z,8.40
2023-05-01T02:26:06.520Z,8.44
2023-05-01T02:28:33.215Z,8.33
2023-05-01T02:30:59.897Z,8.33
2023-05-01T02:33:26.569Z,8.21
2023-05-01T02:35:53.268Z,8.10
2023-05-01T02:38:20.002Z,8.07
2023-05-01T02:40:50.003Z,8.12
2023-05-01T02:43:18.476Z,8.19
2023-05-01T02:45:45.248Z,8.28
2023-05-01T02:48:13.405Z,8.37
2023-05-01T02:50:40.190Z,8.42
2023-05-01T02:53:06.922Z,8.61
2023-05-01T02:55:33.647Z,8.65
2023-05-01T02:58:01.742Z,8.74
2023-05-01T03:00:28.399Z,8.80
2023-05-01T03:02:55.139Z,8.97
2023-05-01T03:05:22.436Z,9.15
2023-05-01T03:07:49.115Z,9.25
2023-05-01T03:10:15.782Z,9.23
2023-05-01T03:12:42.502Z,9.39
2023-05-01T03:15:11.242Z,9.28
2023-05-01T03:17:37.970Z,9.19
2023-05-01T03:20:05.988Z,9.25
2023-05-01T03:22:32.724Z,9.25
2023-05-01T03:24:59.491Z,9.32
2023-05-01T03:27:26.365Z,9.28
2023-05-01T03:29:53.628Z,9.30
2023-05-01T03:32:21.979Z,9.44
2023-05-01T03:34:48.894Z,9.54
2023-05-01T03:37:15.659Z,9.60
2023-05-01T03:39:42.330Z,9.67
2023-05-01T03:42:09.038Z,9.78
2023-05-01T03:44:35.714Z,9.93
2023-05-01T03:47:02.464Z,10.07
2023-05-01T03:49:30.563Z,10.09
2023-05-01T03:51:57.309Z,10.29
2023-05-01T03:54:24.112Z,10.38
2023-05-01T03:56:50.851Z,10.36
2023-05-01T03:59:17.615Z,10.59
2023-05-01T04:01:44.309Z,10.83
2023-05-01T04:04:11.233Z,11.17
2023-05-01T04:06:39.483Z,11.65
2023-05-01T04:09:06.169Z,12.01
2023-05-01T04:11:32.883Z,12.17
2023-05-01T04:13:59.567Z,12.09
2023-05-01T04:16:26.352Z,12.24
2023-05-01T04:18:53.121Z,12.37
2023-05-01T04:21:19.810Z,12.27
2023-05-01T04:23:47.926Z,12.37
2023-05-01T04:26:14.760Z,12.41
2023-05-01T04:28:41.495Z,12.67
2023-05-01T04:31:08.190Z,12.68
2023-05-01T04:33:34.982Z,12.95
2023-05-01T04:36:01.736Z,12.92
2023-05-01T04:38:28.439Z,12.75
2023-05-01T04:40:56.559Z,13.07
2023-05-01T04:43:23.283Z,13.02
2023-05-01T04:45:49.971Z,13.34
2023-05-01T04:48:16.805Z,13.20
2023-05-01T04:50:43.528Z,12.65
2023-05-01T04:53:10.201Z,13.50
2023-05-01T04:55:36.918Z,13.40
2023-05-01T04:58:05.002Z,13.57
2023-05-01T05:00:31.710Z,13.71
2023-05-01T05:02:58.527Z,13.67
2023-05-01T05:05:25.275Z,13.97
2023-05-01T05:07:51.949Z,13.65
2023-05-01T05:10:18.753Z,13.94
2023-05-01T05:12:45.456Z,14.29
2023-05-01T05:15:13.531Z,14.77
2023-05-01T05:17:40.340Z,14.77
2023-05-01T05:20:08.365Z,14.44
2023-05-01T05:22:36.135Z,13.50
2023-05-01T05:25:03.077Z,13.47
2023-05-01T05:27:29.775Z,14.18
2023-05-01T05:29:56.620Z,14.30
2023-05-01T05:32:25.264Z,14.63
2023-05-01T05:34:51.985Z,14.51
2023-05-01T05:37:18.732Z,15.04
2023-05-01T05:39:45.494Z,14.00
2023-05-01T05:42:12.222Z,13.97
2023-05-01T05:44:38.903Z,14.22
2023-05-01T05:47:05.632Z,15.19
2023-05-01T05:49:33.673Z,14.84
2023-05-01T05:52:00.413Z,14.29
2023-05-01T05:54:27.126Z,15.59
2023-05-01T05:56:53.825Z,14.64
2023-05-01T05:59:20.512Z,15.32
2023-05-01T06:01:47.216Z,15.36
2023-05-01T06:04:13.877Z,14.98
2023-05-01T06:06:42.059Z,15.24
2023-05-01T06:09:08.765Z,15.71
2023-05-01T06:11:35.437Z,15.31
2023-05-01T06:14:02.119Z,15.83
2023-05-01T06:16:28.943Z,14.99
2023-05-01T06:18:55.678Z,15.19
2023-05-01T06:21:22.331Z,15.28
2023-05-01T06:23:50.472Z,15.40
2023-05-01T06:26:17.130Z,14.88
2023-05-01T06:28:43.855Z,15.56
2023-05-01T06:31:10.645Z,15.09
2023-05-01T06:33:37.478Z,14.92
2023-05-01T06:36:04.729Z,15.55
2023-05-01T06:38:31.542Z,15.15
2023-05-01T06:40:59.667Z,14.71
2023-05-01T06:43:26.372Z,14.73
2023-05-01T06:45:53.076Z,14.46
2023-05-01T06:48:19.803Z,15.18
2023-05-01T06:50:46.512Z,14.97
2023-05-01T06:53:13.298Z,16.26
2023-05-01T06:55:40.028Z,16.10
2023-05-01T06:58:22.496Z,15.91
2023-05-01T07:00:50.744Z,15.46
2023-05-01T07:03:17.594Z,15.90
2023-05-01T07:05:44.346Z,15.74
2023-05-01T07:08:11.176Z,15.89
2023-05-01T07:10:39.333Z,15.38
2023-05-01T07:13:09.373Z,16.41
2023-05-01T07:15:36.167Z,15.98
2023-05-01T07:18:03.198Z,15.90
2023-05-01T07:20:30.033Z,16.47
2023-05-01T07:22:59.534Z,16.17
2023-05-01T07:25:26.337Z,16.56
2023-05-01T07:27:53.032Z,16.20
2023-05-01T07:30:21.209Z,16.42
2023-05-01T07:32:47.913Z,16.56
2023-05-01T07:35:14.743Z,17.11
2023-05-01T07:37:41.508Z,17.31
2023-05-01T07:40:08.732Z,17.03
2023-05-01T07:42:35.433Z,16.82
2023-05-01T07:45:02.287Z,17.69
2023-05-01T07:47:30.361Z,16.84
2023-05-01T07:49:57.651Z,16.93
2023-05-01T07:52:24.644Z,16.82
2023-05-01T07:54:51.945Z,17.47
2023-05-01T07:57:18.638Z,17.34
2023-05-01T07:59:45.431Z,17.28
2023-05-01T08:02:12.153Z,16.94
2023-05-01T08:04:40.288Z,17.71
2023-05-01T08:07:07.052Z,17.47
2023-05-01T08:09:33.720Z,19.63
2023-05-01T08:12:00.427Z,18.03
2023-05-01T08:14:27.154Z,18.55
2023-05-01T08:16:53.828Z,18.41
2023-05-01T08:19:20.529Z,18.53
2023-05-01T08:21:48.707Z,18.17
2023-05-01T08:24:15.440Z,18.81
2023-05-01T08:26:42.143Z,18.72
2023-05-01T08:29:08.885Z,18.58
2023-05-01T08:31:35.717Z,17.89
2023-05-01T08:34:02.561Z,19.06
2023-05-01T08:36:29.297Z,18.65
2023-05-01T08:38:57.380Z,19.71
2023-05-01T08:41:24.064Z,19.08
2023-05-01T08:43:50.824Z,18.37
2023-05-01T08:46:22.026Z,19.45
2023-05-01T08:48:48.814Z,19.53
2023-05-01T08:51:15.737Z,21.25
2023-05-01T08:53:42.415Z,19.80
2023-05-01T08:56:10.526Z,20.04
2023-05-01T08:58:37.272Z,22.91
2023-05-01T09:01:03.994Z,22.79
2023-05-01T09:03:31.709Z,20.60
2023-05-01T09:05:58.618Z,22.24
2023-05-01T09:08:25.498Z,22.41
2023-05-01T09:10:52.241Z,22.49
2023-05-01T09:13:20.313Z,23.61
2023-05-01T09:15:47.028Z,22.57
2023-05-01T09:18:13.805Z,19.49
2023-05-01T09:20:40.606Z,19.91
2023-05-01T09:23:07.354Z,20.72
2023-05-01T09:25:34.039Z,23.06
2023-05-01T09:28:00.750Z,22.07
2023-05-01T09:30:32.861Z,22.37
2023-05-01T09:33:09.212Z,22.52
2023-05-01T09:35:52.042Z,20.39
2023-05-01T09:38:19.656Z,23.49
2023-05-01T09:40:46.360Z,23.00
2023-05-01T09:43:13.056Z,22.43
2023-05-01T09:45:42.504Z,22.44
2023-05-01T09:48:09.510Z,21.23
2023-05-01T09:50:36.275Z,21.24
2023-05-01T09:53:04.210Z,21.92
2023-05-01T09:55:30.916Z,22.92
2023-05-01T09:57:57.607Z,23.92
2023-05-01T10:00:24.545Z,22.69
2023-05-01T10:02:53.013Z,22.72
2023-05-01T10:05:19.894Z,22.18
2023-05-01T10:07:57.018Z,21.52
2023-05-01T10:10:23.747Z,21.20
2023-05-01T10:12:50.435Z,24.05
2023-05-01T10:15:25.527Z,21.90
2023-05-01T10:17:55.192Z,21.93
2023-05-01T10:20:22.090Z,22.13
2023-05-01T10:22:49.232Z,22.07
2023-05-01T10:25:16.955Z,23.00
2023-05-01T10:27:43.732Z,22.22
2023-05-01T10:30:11.178Z,23.77
2023-05-01T10:32:38.180Z,27.37
2023-05-01T10:35:09.270Z,26.75
2023-05-01T10:37:38.051Z,24.01
2023-05-01T10:40:42.212Z,23.74
2023-05-01T10:43:26.758Z,22.85
2023-05-01T10:45:54.303Z,23.73
2023-05-01T10:48:54.721Z,25.53
2023-05-01T10:51:25.663Z,22.40
2023-05-01T10:54:24.079Z,24.06
2023-05-01T10:56:50.999Z,25.17
2023-05-01T10:59:17.789Z,25.86
2023-05-01T11:01:44.654Z,23.33
2023-05-01T11:04:46.986Z,21.80
2023-05-01T11:07:15.541Z,23.74
2023-05-01T11:09:42.788Z,24.32
2023-05-01T11:12:10.022Z,22.81
2023-05-01T11:15:01.974Z,24.86
2023-05-01T11:17:46.407Z,23.13
2023-05-01T11:20:13.475Z,23.55
2023-05-01T11:22:45.106Z,24.90
2023-05-01T11:25:18.735Z,22.40
2023-05-01T11:27:47.591Z,22.58
2023-05-01T11:30:14.326Z,27.89
2023-05-01T11:32:43.282Z,27.19
2023-05-01T11:35:16.451Z,24.83
2023-05-01T11:37:44.622Z,22.91
2023-05-01T11:40:21.201Z,26.56
2023-05-01T11:42:48.151Z,24.11
2023-05-01T11:45:14.950Z,24.59
2023-05-01T11:47:41.682Z,25.39
2023-05-01T11:50:09.162Z,25.77
2023-05-01T11:52:44.441Z,26.88
2023-05-01T11:55:11.260Z,26.82
2023-05-01T11:57:48.252Z,27.41
2023-05-01T12:00:15.938Z,23.24
2023-05-01T12:02:58.313Z,24.97
2023-05-01T12:05:25.168Z,27.72
2023-05-01T12:08:05.424Z,26.53
2023-05-01T12:10:33.561Z,25.49
2023-05-01T12:13:02.340Z,25.10
2023-05-01T12:15:29.039Z,26.63
2023-05-01T12:17:56.914Z,25.76
2023-05-01T12:20:34.816Z,25.98
2023-05-01T12:23:03.036Z,24.64
2023-05-01T12:25:30.160Z,24.56
2023-05-01T12:27:56.931Z,23.53
2023-05-01T12:30:25.323Z,26.17
2023-05-01T12:32:52.021Z,27.04
2023-05-01T12:35:18.829Z,26.44
2023-05-01T12:37:45.562Z,30.07
2023-05-01T12:40:14.626Z,29.96
2023-05-01T12:42:41.365Z,33.23
2023-05-01T12:45:09.245Z,25.28
2023-05-01T12:47:36.775Z,25.01
2023-05-01T12:50:03.666Z,25.67
2023-05-01T12:52:31.149Z,25.93
2023-05-01T12:55:02.337Z,27.88
2023-05-01T12:57:30.427Z,26.37
2023-05-01T12:59:59.856Z,26.56
2023-05-01T13:02:29.876Z,25.10
2023-05-01T13:05:05.678Z,25.17
2023-05-01T13:07:32.405Z,25.39
2023-05-01T13:09:59.594Z,24.84
2023-05-01T13:12:27.103Z,25.35
2023-05-01T13:14:55.180Z,26.47
2023-05-01T13:17:25.851Z,28.44
2023-05-01T13:19:55.730Z,25.56
2023-05-01T13:22:30.416Z,24.52
2023-05-01T13:24:57.232Z,25.22
2023-05-01T13:27:23.926Z,26.48
2023-05-01T13:29:53.207Z,27.10
2023-05-01T13:32:21.359Z,25.29
2023-05-01T13:34:48.073Z,23.64
2023-05-01T13:37:14.892Z,24.30
2023-05-01T13:39:41.767Z,24.67
2023-05-01T13:42:08.447Z,26.44
2023-05-01T13:44:40.956Z,27.62
2023-05-01T13:47:07.690Z,26.14
2023-05-01T13:49:35.775Z,24.46
2023-05-01T13:52:02.498Z,23.86
2023-05-01T13:54:52.783Z,25.11
2023-05-01T13:57:19.628Z,23.16
2023-05-01T13:59:46.996Z,23.75
2023-05-01T14:02:18.613Z,25.06
2023-05-01T14:04:45.376Z,25.97
2023-05-01T14:07:12.681Z,25.34
2023-05-01T14:09:39.753Z,24.56
2023-05-01T14:12:07.839Z,24.15
2023-05-01T14:14:34.942Z,24.05
2023-05-01T14:17:01.753Z,23.68
2023-05-01T14:19:28.455Z,22.62
2023-05-01T14:21:55.180Z,24.60
2023-05-01T14:24:21.935Z,25.46
2023-05-01T14:26:48.639Z,24.04
2023-05-01T14:29:25.845Z,23.31
2023-05-01T14:31:52.762Z,24.33
2023-05-01T14:34:19.535Z,24.60
2023-05-01T14:36:46.322Z,22.73
2023-05-01T14:39:13.000Z,25.06
2023-05-01T14:41:40.022Z,25.50
2023-05-01T14:44:06.793Z,24.23
2023-05-01T14:46:36.036Z,23.78
2023-05-01T14:49:02.840Z,24.13
2023-05-01T14:51:29.748Z,23.89
2023-05-01T14:53:56.488Z,22.79
2023-05-01T14:56:23.172Z,22.96
2023-05-01T14:58:50.056Z,23.07
2023-05-01T15:01:17.000Z,23.15
2023-05-01T15:03:45.493Z,23.16
2023-05-01T15:06:12.568Z,22.71
2023-05-01T15:08:39.377Z,23.36
2023-05-01T15:11:06.290Z,23.16
2023-05-01T15:13:33.136Z,23.12
2023-05-01T15:15:59.935Z,23.43
2023-05-01T15:18:26.673Z,23.20
2023-05-01T15:20:55.245Z,22.27
2023-05-01T15:23:21.993Z,23.65
2023-05-01T15:25:48.679Z,22.84
2023-05-01T15:28:15.470Z,22.73
2023-05-01T15:30:44.369Z,23.07
2023-05-01T15:33:11.113Z,22.09
2023-05-01T15:35:37.987Z,22.37
2023-05-01T15:38:06.064Z,22.62
2023-05-01T15:40:32.745Z,22.44
2023-05-01T15:45:53.722Z,22.51
2023-05-01T15:48:20.501Z,22.33
2023-05-01T15:50:48.928Z,22.17
2023-05-01T15:53:18.020Z,21.94
2023-05-01T15:55:44.760Z,22.00
2023-05-01T15:58:11.581Z,22.09
2023-05-01T16:00:38.361Z,22.27
2023-05-01T16:03:05.132Z,21.76
2023-05-01T16:05:31.953Z,21.35
2023-05-01T16:08:00.271Z,21.34
2023-05-01T16:10:28.512Z,21.59
2023-05-01T16:12:55.181Z,21.35
2023-05-01T16:15:22.101Z,21.04
2023-05-01T16:17:48.970Z,20.96
2023-05-01T16:20:15.753Z,20.91
2023-05-01T16:22:42.548Z,20.70
2023-05-01T16:25:10.054Z,20.73
2023-05-01T16:27:40.272Z,20.66
2023-05-01T16:30:08.423Z,20.56
2023-05-01T16:32:35.175Z,20.56
2023-05-01T16:35:01.941Z,20.52
2023-05-01T16:37:28.751Z,20.45
2023-05-01T16:39:59.165Z,20.42
2023-05-01T16:42:26.045Z,20.32
2023-05-01T16:44:54.139Z,20.25
2023-05-01T16:47:20.865Z,20.21
2023-05-01T16:49:47.555Z,19.97
2023-05-01T16:52:14.351Z,19.92
2023-05-01T16:54:41.067Z,19.84
2023-05-01T16:57:07.772Z,19.74
2023-05-01T16:59:34.547Z,19.63
2023-05-01T17:02:02.685Z,19.57
2023-05-01T17:04:29.516Z,19.59
2023-05-01T17:06:56.497Z,19.59
2023-05-01T17:09:23.272Z,19.60
2023-05-01T17:11:49.971Z,19.53
2023-05-01T17:14:16.743Z,19.36
2023-05-01T17:16:43.495Z,19.23
2023-05-01T17:19:11.585Z,18.89
2023-05-01T17:21:38.401Z,18.85
2023-05-01T17:24:05.524Z,18.98
2023-05-01T17:26:32.216Z,18.89
2023-05-01T17:29:00.465Z,18.84
2023-05-01T17:31:28.444Z,18.74
2023-05-01T17:33:55.135Z,18.58
2023-05-01T17:36:23.262Z,18.53
2023-05-01T17:38:49.960Z,18.29
2023-05-01T17:41:16.676Z,18.00
2023-05-01T17:43:43.374Z,17.99
2023-05-01T17:46:10.280Z,17.90
2023-05-01T17:48:37.029Z,17.92
2023-05-01T17:51:03.898Z,17.88
2023-05-01T17:53:32.123Z,17.75
2023-05-01T17:55:58.828Z,17.64
2023-05-01T17:58:25.542Z,17.48
2023-05-01T18:00:52.293Z,17.19
2023-05-01T18:03:19.138Z,16.93
2023-05-01T18:05:45.961Z,17.07
2023-05-01T18:08:12.648Z,17.06
2023-05-01T18:10:40.767Z,16.97
2023-05-01T18:13:07.504Z,16.79
2023-05-01T18:15:34.169Z,16.79
2023-05-01T18:18:00.955Z,16.77
2023-05-01T18:20:28.258Z,17.02
2023-05-01T18:22:54.955Z,17.03
2023-05-01T18:25:21.647Z,16.65
2023-05-01T18:27:49.908Z,16.31
2023-05-01T18:30:16.606Z,16.38
2023-05-01T18:32:48.243Z,16.17
2023-05-01T18:35:15.944Z,16.48
2023-05-01T18:37:42.668Z,15.94
2023-05-01T18:40:09.936Z,15.65
2023-05-01T18:42:36.740Z,16.32
2023-05-01T18:45:05.841Z,15.70
2023-05-01T18:47:32.749Z,15.43
2023-05-01T18:50:00.045Z,14.94
2023-05-01T18:52:27.779Z,15.05
2023-05-01T18:54:54.548Z,15.40
2023-05-01T18:57:21.298Z,15.15
2023-05-01T18:59:47.989Z,15.24
2023-05-01T19:02:16.115Z,15.25
2023-05-01T19:04:56.166Z,15.59
2023-05-01T19:07:25.157Z,14.87
2023-05-01T19:09:51.899Z,14.70
2023-05-01T19:12:18.618Z,14.67
2023-05-01T19:14:45.322Z,14.53
2023-05-01T19:17:12.097Z,14.88
2023-05-01T19:19:40.245Z,14.71
2023-05-01T19:22:06.940Z,14.44
2023-05-01T19:24:33.710Z,14.40
2023-05-01T19:27:00.487Z,13.74
2023-05-01T19:29:27.203Z,13.30
2023-05-01T19:31:54.700Z,12.99
2023-05-01T19:34:21.399Z,12.84
2023-05-01T19:36:49.487Z,12.54
2023-05-01T19:39:16.275Z,12.38
2023-05-01T19:41:43.014Z,12.30
2023-05-01T19:44:09.810Z,12.23
2023-05-01T19:46:36.627Z,12.20
2023-05-01T19:49:03.438Z,11.99
2023-05-01T19:51:30.265Z,11.89
2023-05-01T19:53:58.467Z,11.82
2023-05-01T19:56:25.175Z,11.71
2023-05-01T19:58:53.279Z,11.58
2023-05-01T20:01:20.289Z,11.50
2023-05-01T20:03:47.100Z,11.79
2023-05-01T20:06:13.937Z,11.62
2023-05-01T20:08:40.906Z,11.31
2023-05-01T20:11:09.025Z,11.31
2023-05-01T20:13:35.743Z,11.50
2023-05-01T20:16:02.530Z,11.42
2023-05-01T20:18:29.302Z,11.31
2023-05-01T20:20:55.998Z,11.54
2023-05-01T20:23:22.712Z,11.36
2023-05-01T20:25:49.514Z,11.07
2023-05-01T20:28:17.690Z,10.84
2023-05-01T20:30:45.180Z,11.24
2023-05-01T20:33:11.926Z,11.06
2023-05-01T20:35:38.653Z,11.32
2023-05-01T20:38:05.734Z,11.04
2023-05-01T20:40:32.680Z,10.93
2023-05-01T20:42:59.472Z,10.89
2023-05-01T20:45:27.648Z,10.73
2023-05-01T20:47:54.393Z,10.83
2023-05-01T20:50:21.071Z,10.66
2023-05-01T20:52:47.768Z,10.41
2023-05-01T20:55:14.481Z,10.29
2023-05-01T20:57:41.130Z,10.39
2023-05-01T21:00:08.714Z,10.22
2023-05-01T21:02:38.205Z,10.15
2023-05-01T21:05:05.474Z,10.07
2023-05-01T21:07:32.219Z,10.04
2023-05-01T21:09:59.189Z,9.94
2023-05-01T21:12:26.046Z,9.93
2023-05-01T21:14:52.798Z,9.87
2023-05-01T21:17:19.483Z,9.81
2023-05-01T21:19:47.587Z,9.78
2023-05-01T21:22:15.388Z,9.83
2023-05-01T21:24:42.874Z,9.63
2023-05-01T21:27:09.548Z,10.25
2023-05-01T21:29:36.297Z,10.26
2023-05-01T21:32:03.437Z,9.98
2023-05-01T21:34:30.213Z,9.86
2023-05-01T21:36:58.291Z,9.86
2023-05-01T21:39:24.987Z,9.76
2023-05-01T21:41:51.670Z,9.77
2023-05-01T21:44:18.502Z,9.77
2023-05-01T21:46:45.300Z,9.64
2023-05-01T21:49:11.980Z,9.56
2023-05-01T21:51:38.728Z,9.63
2023-05-01T21:54:06.813Z,9.61
2023-05-01T21:56:33.491Z,9.70
2023-05-01T21:59:00.764Z,9.90
2023-05-01T22:01:27.638Z,9.93
2023-05-01T22:03:54.401Z,9.87
2023-05-01T22:06:21.251Z,9.93
2023-05-01T22:08:47.988Z,9.84
2023-05-01T22:11:16.076Z,9.76
2023-05-01T22:13:42.816Z,9.67
2023-05-01T22:16:09.553Z,9.51
2023-05-01T22:18:36.264Z,9.47
2023-05-01T22:21:03.114Z,9.46
2023-05-01T22:23:29.819Z,9.50
2023-05-01T22:25:56.513Z,9.59
2023-05-01T22:28:24.657Z,9.71
2023-05-01T22:30:51.401Z,9.70
2023-05-01T22:33:18.158Z,9.60
2023-05-01T22:35:44.897Z,9.49
2023-05-01T22:38:11.598Z,9.42
2023-05-01T22:40:38.286Z,9.35
2023-05-01T22:43:04.991Z,9.28
2023-05-01T22:45:33.125Z,9.21
2023-05-01T22:47:59.901Z,9.28
2023-05-01T22:50:26.759Z,9.15
2023-05-01T22:52:53.454Z,9.16
2023-05-01T22:55:20.140Z,9.09
2023-05-01T22:57:46.906Z,9.15
2023-05-01T23:00:14.332Z,9.02
2023-05-01T23:02:42.467Z,9.01
2023-05-01T23:05:09.534Z,9.05
2023-05-01T23:07:36.319Z,9.04
2023-05-01T23:10:03.176Z,8.91
2023-05-01T23:12:29.949Z,8.88
2023-05-01T23:14:56.628Z,8.75
2023-05-01T23:17:23.366Z,8.77
2023-05-01T23:19:51.600Z,8.81
2023-05-01T23:22:18.300Z,8.84
2023-05-01T23:24:45.749Z,8.84
2023-05-01T23:27:12.507Z,8.88
2023-05-01T23:29:39.897Z,8.84
2023-05-01T23:32:08.528Z,8.80
2023-05-01T23:34:35.250Z,8.87
2023-05-01T23:37:03.389Z,8.97
2023-05-01T23:39:30.069Z,9.14
2023-05-01T23:41:56.832Z,9.23
2023-05-01T23:44:23.524Z,9.40
2023-05-01T23:46:50.298Z,9.50
2023-05-01T23:49:17.092Z,9.53
2023-05-01T23:51:43.835Z,9.56
2023-05-01T23:54:11.988Z,9.63
2023-05-01T23:56:38.777Z,9.80
2023-05-01T23:59:05.478Z,9.80
